Time;durP1;ratioP1;P1;durP2;ratioP2;P2;SDS_P1;SDS_P2;PMS_P1;PMS_P2;Temp;Humidity;BMP_temperature;BMP_pressure;BME280_temperature;BME280_humidity;BME280_pressure;Samples;Min_cycle;Max_cycle;Signal;HPM_P1;HPM_P2
2023/01/26 00:00:30;;;;;;;;;;;;;;;20.03;35.52;102013.11;106093;1283;61250;-84
2023/01/26 00:02:57;;;;;;;;;;;;;;;20.04;35.47;102018.28;106185;1283;61240;-82
2023/01/26 00:05:22;;;;;;;;;;;;;;;20.03;35.36;102010.45;106082;1283;61398;-82
2023/01/26 00:07:48;;;;;;;;;;;;;;;20.04;35.35;102009.16;106152;1285;61289;-83
2023/01/26 00:10:14;;;;;;;;;;;;;;;20.05;35.46;102007.34;106103;1283;61442;-83
2023/01/26 00:12:39;;;;;;;;;;;;;;;20.05;35.27;102003.77;106217;1283;61289;-83
2023/01/26 00:15:05;;;;;;;;;;;;;;;20.05;35.38;102004.47;106177;1283;61194;-83
2023/01/26 00:17:32;;;;;;;;;;;;;;;20.05;35.31;101995.35;106183;1283;61340;-83
2023/01/26 00:19:57;;;;;;;;;;;;;;;20.06;35.47;101991.40;106180;1283;61233;-83
2023/01/26 00:22:23;;;;;;;;;;;;;;;20.06;35.43;101994.05;106172;1283;61286;-82
2023/01/26 00:24:49;;;;;;;;;;;;;;;20.06;35.37;101997.61;106163;1283;61226;-82
2023/01/26 00:27:15;;;;;;;;;;;;;;;20.07;35.36;102000.81;106046;1283;61283;-82
2023/01/26 00:29:40;;;;;;;;;;;;;;;20.07;35.30;101998.66;106197;1283;61254;-82
2023/01/26 00:32:06;;;;;;;;;;;;;;;20.07;35.24;101993.27;106119;1283;61314;-82
2023/01/26 00:34:31;;;;;;;;;;;;;;;20.07;35.37;101992.05;106304;1285;61391;-82
2023/01/26 00:36:57;;;;;;;;;;;;;;;20.07;35.37;101997.39;106256;1283;61275;-82
2023/01/26 00:39:22;;;;;;;;;;;;;;;20.07;35.27;101993.64;106387;1283;61258;-82
2023/01/26 00:42:08;;;;;;;;;;;;;;;20.08;35.23;101993.58;106383;1283;61249;-82
2023/01/26 00:44:37;;;;;;;;;;;;;;;20.09;35.31;101991.03;106275;1283;61167;-82
2023/01/26 00:47:04;;;;;;;;;;;;;;;20.09;35.41;101991.23;106157;1285;61731;-82
2023/01/26 00:49:30;;;;;;;;;;;;;;;20.10;35.22;101987.95;106179;1283;72428;-82
2023/01/26 00:51:55;;;;;;;;;;;;;;;20.11;35.36;101986.67;106062;1283;61270;-82
2023/01/26 00:54:21;;;;;;;;;;;;;;;20.11;35.23;101988.64;106171;1283;58989;-82
2023/01/26 00:56:46;;;;;;;;;;;;;;;20.11;35.26;101984.70;105998;1284;61279;-83
2023/01/26 00:59:12;;;;;;;;;;;;;;;20.11;35.27;101976.48;106156;1283;61440;-82
2023/01/26 01:01:40;;;;;;;;;;;;;;;20.12;35.41;101974.30;106152;1283;59961;-82
2023/01/26 01:04:05;;;;;;;;;;;;;;;20.12;35.28;101973.79;106149;1283;74407;-82
2023/01/26 01:06:31;;;;;;;;;;;;;;;20.12;35.30;101973.96;106170;1283;61218;-83
2023/01/26 01:08:57;;;;;;;;;;;;;;;20.12;35.31;101970.02;106238;1283;61292;-83
2023/01/26 01:11:22;;;;;;;;;;;;;;;20.12;35.18;101965.19;106211;1283;61266;-82
2023/01/26 01:13:48;;;;;;;;;;;;;;;20.12;35.17;101960.71;106149;1283;61198;-82
2023/01/26 01:16:14;;;;;;;;;;;;;;;20.12;35.19;101964.28;106201;1284;61474;-82
2023/01/26 01:18:42;;;;;;;;;;;;;;;20.12;35.10;101962.51;106185;1283;61253;-82
2023/01/26 01:21:14;;;;;;;;;;;;;;;20.12;35.20;101965.91;106156;1284;60270;-82
2023/01/26 01:23:40;;;;;;;;;;;;;;;20.13;35.31;101967.31;106167;1283;73561;-82
2023/01/26 01:26:05;;;;;;;;;;;;;;;20.13;35.18;101969.23;106054;1283;61228;-83
2023/01/26 01:28:31;;;;;;;;;;;;;;;20.13;35.18;101974.40;105415;1283;1064013;-83
2023/01/26 01:30:57;;;;;;;;;;;;;;;20.15;35.35;101969.55;106186;1283;61269;-82
2023/01/26 01:33:23;;;;;;;;;;;;;;;20.15;35.26;101966.14;106204;1283;59262;-82
2023/01/26 01:35:58;;;;;;;;;;;;;;;20.15;35.32;101961.13;106189;1283;61268;-82
2023/01/26 01:38:24;;;;;;;;;;;;;;;20.15;35.21;101957.71;106174;1287;75523;-83
2023/01/26 01:40:50;;;;;;;;;;;;;;;20.15;35.25;101955.04;106187;1283;61289;-83
2023/01/26 01:43:15;;;;;;;;;;;;;;;20.15;35.25;101950.55;106198;1283;60070;-82
2023/01/26 01:45:46;;;;;;;;;;;;;;;20.15;35.10;101949.87;106010;1283;61346;-82
2023/01/26 01:48:25;;;;;;;;;;;;;;;20.15;35.18;101945.36;106182;1283;73608;-82
2023/01/26 01:50:51;;;;;;;;;;;;;;;20.15;35.30;101945.38;106106;1283;61064;-82
2023/01/26 01:53:18;;;;;;;;;;;;;;;20.17;35.23;101945.29;106066;1283;61279;-82
2023/01/26 01:55:44;;;;;;;;;;;;;;;20.17;35.22;101942.94;106168;1283;71495;-83
2023/01/26 01:58:11;;;;;;;;;;;;;;;20.17;35.14;101940.27;106003;1283;61207;-83
2023/01/26 02:00:36;;;;;;;;;;;;;;;20.18;35.24;101933.27;106164;1285;61272;-82
2023/01/26 02:03:25;;;;;;;;;;;;;;;;;;;;;
2023/01/26 02:05:53;;;;;;;;;;;;;;;20.17;35.18;101914.50;106140;1284;72855;-82
2023/01/26 02:08:19;;;;;;;;;;;;;;;20.18;35.22;101916.14;106078;1284;74475;-82
2023/01/26 02:10:45;;;;;;;;;;;;;;;20.18;35.32;101914.13;106173;1283;59372;-82
2023/01/26 02:13:11;;;;;;;;;;;;;;;20.18;35.30;101913.23;106141;1283;61285;-83
2023/01/26 02:15:37;;;;;;;;;;;;;;;20.18;35.25;101903.94;106151;1283;59897;-83
2023/01/26 02:18:02;;;;;;;;;;;;;;;20.18;35.12;101905.55;106164;1284;61714;-83
2023/01/26 02:20:31;;;;;;;;;;;;;;;20.18;35.19;101902.31;106197;1285;61286;-83
2023/01/26 02:23:11;;;;;;;;;;;;;;;20.19;35.20;101900.88;106076;1283;61295;-83
2023/01/26 02:25:37;;;;;;;;;;;;;;;20.19;35.18;101900.30;105990;1285;72510;-83
2023/01/26 02:28:02;;;;;;;;;;;;;;;20.19;35.19;101893.67;106106;1283;61771;-83
2023/01/26 02:30:28;;;;;;;;;;;;;;;20.19;35.19;101886.52;106198;1284;61336;-83
2023/01/26 02:32:54;;;;;;;;;;;;;;;20.20;35.18;101884.89;106179;1285;61339;-83
2023/01/26 02:35:21;;;;;;;;;;;;;;;20.21;35.16;101885.03;106164;1285;61288;-83
2023/01/26 02:37:47;;;;;;;;;;;;;;;20.21;35.21;101883.39;106159;1283;61340;-83
2023/01/26 02:40:15;;;;;;;;;;;;;;;20.21;35.12;101884.83;106086;1283;61248;-83
2023/01/26 02:42:42;;;;;;;;;;;;;;;20.22;35.14;101877.48;106217;1283;61259;-83
2023/01/26 02:45:11;;;;;;;;;;;;;;;20.22;35.27;101874.42;106094;1283;61374;-83
2023/01/26 02:47:39;;;;;;;;;;;;;;;20.22;35.08;101866.73;106093;1283;74502;-84
2023/01/26 02:50:06;;;;;;;;;;;;;;;20.23;35.14;101873.88;106090;1284;61238;-83
2023/01/26 02:52:31;;;;;;;;;;;;;;;20.22;35.25;101873.88;106113;1283;61291;-83
2023/01/26 02:57:41;;;;;;;;;;;;;;;20.24;35.21;101876.65;106215;1284;74507;-83
2023/01/26 03:00:08;;;;;;;;;;;;;;;20.23;35.26;101872.20;106162;1283;61282;-82
2023/01/26 03:02:33;;;;;;;;;;;;;;;20.24;35.15;101867.16;106326;1283;61330;-82
2023/01/26 03:04:59;;;;;;;;;;;;;;;20.24;35.22;101873.77;106408;1283;61445;-82
2023/01/26 03:07:24;;;;;;;;;;;;;;;20.25;35.19;101873.00;106419;1284;61287;-82
2023/01/26 03:09:50;;;;;;;;;;;;;;;20.26;35.06;101869.38;106308;1284;61273;-82
2023/01/26 03:12:15;;;;;;;;;;;;;;;20.27;35.09;101878.82;106231;1285;61236;-83
2023/01/26 03:14:41;;;;;;;;;;;;;;;20.27;35.11;101870.23;106175;1283;61427;-83
2023/01/26 03:17:30;;;;;;;;;;;;;;;20.26;35.11;101865.25;106173;1285;61359;-83
2023/01/26 03:28:13;;;;;;;;;;;;;;;20.28;35.17;101854.48;105599;1287;72426;-82
2023/01/26 03:30:38;;;;;;;;;;;;;;;20.28;35.11;101856.63;105535;1288;61284;-82
2023/01/26 03:33:04;;;;;;;;;;;;;;;20.28;35.09;101855.35;105472;1290;61257;-82
2023/01/26 03:35:31;;;;;;;;;;;;;;;20.29;35.10;101847.45;105534;1291;61343;-82
2023/01/26 03:37:57;;;;;;;;;;;;;;;20.29;35.02;101845.09;105460;1292;61163;-82
2023/01/26 03:56:51;;;;;;;;;;;;;;;20.30;35.03;101809.82;105503;1287;61305;-83
2023/01/26 03:59:19;;;;;;;;;;;;;;;20.31;35.08;101807.65;105572;1287;59441;-82
2023/01/26 04:09:58;;;;;;;;;;;;;;;20.32;35.08;101798.46;106137;1283;72433;-83
2023/01/26 04:12:24;;;;;;;;;;;;;;;20.32;35.07;101799.73;106067;1283;61294;-83
2023/01/26 04:23:02;;;;;;;;;;;;;;;20.33;35.03;101781.45;106154;1283;75507;-82
2023/01/26 04:25:28;;;;;;;;;;;;;;;20.34;34.99;101777.85;106212;1283;61361;-83
2023/01/26 04:27:54;;;;;;;;;;;;;;;20.34;35.03;101776.40;106178;1283;61393;-83
2023/01/26 04:30:19;;;;;;;;;;;;;;;20.34;34.93;101770.13;106138;1285;61302;-83
2023/01/26 04:32:45;;;;;;;;;;;;;;;20.35;35.09;101769.02;106149;1283;61614;-83
2023/01/26 04:35:11;;;;;;;;;;;;;;;20.35;35.02;101766.68;106136;1284;61206;-82
2023/01/26 04:37:37;;;;;;;;;;;;;;;20.35;35.17;101763.84;106137;1283;61193;-82
2023/01/26 04:40:05;;;;;;;;;;;;;;;20.35;34.98;101769.19;106201;1283;59321;-83
2023/01/26 04:42:30;;;;;;;;;;;;;;;20.34;35.14;101765.11;106152;1284;61152;-83
2023/01/26 04:44:56;;;;;;;;;;;;;;;20.35;34.99;101761.52;106149;1287;61349;-82
2023/01/26 04:47:21;;;;;;;;;;;;;;;20.35;35.01;101759.88;106168;1283;61242;-82
2023/01/26 04:49:47;;;;;;;;;;;;;;;20.36;34.99;101761.27;106157;1285;61742;-82
2023/01/26 04:52:13;;;;;;;;;;;;;;;20.36;34.86;101763.58;106090;1284;61346;-82
2023/01/26 04:54:39;;;;;;;;;;;;;;;20.36;34.96;101766.79;106192;1284;61354;-82
2023/01/26 04:57:04;;;;;;;;;;;;;;;20.37;35.00;101762.83;106161;1283;72644;-82
2023/01/26 04:59:30;;;;;;;;;;;;;;;20.37;34.92;101762.27;106120;1283;61264;-83
2023/01/26 05:01:56;;;;;;;;;;;;;;;20.37;34.82;101765.13;106089;1284;61246;-83
2023/01/26 05:04:21;;;;;;;;;;;;;;;20.37;34.85;101757.29;106013;1285;61278;-83
2023/01/26 05:06:48;;;;;;;;;;;;;;;20.35;34.78;101757.72;106045;1283;61299;-83
2023/01/26 05:09:14;;;;;;;;;;;;;;;20.34;34.85;101754.02;106174;1283;61325;-83
2023/01/26 05:11:40;;;;;;;;;;;;;;;20.34;34.71;101750.46;106080;1284;61329;-83
2023/01/26 05:14:05;;;;;;;;;;;;;;;20.34;34.72;101749.55;106213;1283;61279;-83
2023/01/26 05:16:31;;;;;;;;;;;;;;;20.34;34.70;101745.65;106160;1284;60358;-83
2023/01/26 05:18:56;;;;;;;;;;;;;;;20.33;34.74;101749.81;106143;1285;61269;-83
2023/01/26 05:21:26;;;;;;;;;;;;;;;20.31;34.52;101747.03;106185;1285;61294;-83
2023/01/26 05:23:52;;;;;;;;;;;;;;;20.31;34.58;101744.92;106072;1283;61149;-84
2023/01/26 05:26:18;;;;;;;;;;;;;;;20.30;34.59;101751.04;105975;1284;61260;-84
2023/01/26 05:28:43;;;;;;;;;;;;;;;20.30;34.53;101753.34;106072;1282;61279;-84
2023/01/26 05:31:09;;;;;;;;;;;;;;;20.30;34.48;101751.39;106129;1285;61464;-83
2023/01/26 05:33:34;;;;;;;;;;;;;;;20.28;34.36;101754.52;106200;1282;61257;-84
2023/01/26 05:36:02;;;;;;;;;;;;;;;20.26;34.30;101751.02;106241;1282;61257;-85
2023/01/26 05:38:30;;;;;;;;;;;;;;;20.25;34.39;101749.67;106110;1284;73442;-83
2023/01/26 05:40:56;;;;;;;;;;;;;;;20.22;34.30;101747.67;106137;1282;74433;-83
2023/01/26 05:43:22;;;;;;;;;;;;;;;20.20;34.21;101744.95;106100;1282;61308;-83
2023/01/26 05:45:48;;;;;;;;;;;;;;;20.17;34.18;101745.99;106285;1282;60028;-83
2023/01/26 05:48:14;;;;;;;;;;;;;;;20.13;34.01;101744.98;106186;1282;61240;-83
2023/01/26 05:50:40;;;;;;;;;;;;;;;20.08;33.85;101743.80;106248;1285;61190;-83
2023/01/26 05:53:06;;;;;;;;;;;;;;;20.02;33.92;101748.36;106108;1282;61759;-84
2023/01/26 05:55:32;;;;;;;;;;;;;;;19.95;33.92;101751.20;106088;1282;61271;-84
2023/01/26 05:57:58;;;;;;;;;;;;;;;19.87;33.87;101742.15;106214;1282;59760;-84
2023/01/26 06:00:23;;;;;;;;;;;;;;;19.79;33.77;101739.52;106072;1282;61077;-84
2023/01/26 06:02:48;;;;;;;;;;;;;;;19.71;33.77;101738.48;106165;1282;61335;-84
2023/01/26 06:05:14;;;;;;;;;;;;;;;19.62;33.69;101730.70;106217;1282;61769;-84
2023/01/26 06:07:39;;;;;;;;;;;;;;;19.54;33.73;101727.91;106086;1282;61108;-84
2023/01/26 06:10:07;;;;;;;;;;;;;;;19.47;33.71;101729.89;106064;1282;59432;-84
2023/01/26 06:12:34;;;;;;;;;;;;;;;19.39;33.71;101737.58;106202;1283;60152;-83
2023/01/26 06:15:00;;;;;;;;;;;;;;;19.31;33.60;101734.95;106307;1282;61277;-85
2023/01/26 06:17:26;;;;;;;;;;;;;;;19.24;33.66;101733.30;106290;1282;62701;-83
2023/01/26 06:19:52;;;;;;;;;;;;;;;19.19;33.78;101733.88;106250;1287;61277;-84
2023/01/26 06:22:17;;;;;;;;;;;;;;;19.18;33.69;101741.64;106163;1287;61160;-83
2023/01/26 06:24:42;;;;;;;;;;;;;;;19.16;33.57;101739.23;106181;1282;74331;-83
2023/01/26 06:27:11;;;;;;;;;;;;;;;19.13;33.65;101736.00;106237;1282;59207;-83
2023/01/26 06:29:37;;;;;;;;;;;;;;;19.09;33.53;101729.73;106279;1282;60426;-84
2023/01/26 06:32:03;;;;;;;;;;;;;;;19.02;33.45;101729.72;106098;1282;72433;-85
2023/01/26 06:34:29;;;;;;;;;;;;;;;18.88;33.59;101729.81;106102;1282;61272;-84
2023/01/26 06:36:56;;;;;;;;;;;;;;;18.73;33.52;101738.19;106116;1282;59796;-83
2023/01/26 06:39:22;;;;;;;;;;;;;;;18.58;33.34;101738.53;106253;1282;59531;-85
2023/01/26 06:41:47;;;;;;;;;;;;;;;18.46;33.64;101740.50;106106;1282;61141;-83
2023/01/26 06:44:13;;;;;;;;;;;;;;;18.34;33.52;101732.84;106187;1282;61318;-83
2023/01/26 06:46:38;;;;;;;;;;;;;;;18.25;33.61;101734.30;106305;1284;61349;-84
2023/01/26 06:49:04;;;;;;;;;;;;;;;18.22;33.65;101733.31;106161;1284;61304;-83
2023/01/26 06:51:47;;;;;;;;;;;;;;;18.23;33.71;101733.34;106081;1282;60155;-84
2023/01/26 06:54:14;;;;;;;;;;;;;;;18.17;33.73;101727.87;106312;1282;72332;-84
2023/01/26 06:56:39;;;;;;;;;;;;;;;18.00;33.57;101729.48;106144;1282;59963;-83
2023/01/26 06:59:05;;;;;;;;;;;;;;;17.93;33.72;101733.36;106233;1282;61289;-82
2023/01/26 07:01:32;;;;;;;;;;;;;;;17.89;33.73;101733.69;106295;1282;59543;-83
2023/01/26 07:03:58;;;;;;;;;;;;;;;17.85;33.71;101732.05;106189;1282;61233;-83
2023/01/26 07:06:23;;;;;;;;;;;;;;;17.85;33.67;101728.52;106134;1284;61446;-82
2023/01/26 07:08:49;;;;;;;;;;;;;;;17.92;33.68;101730.90;106393;1284;59873;-83
2023/01/26 07:11:15;;;;;;;;;;;;;;;18.01;33.71;101732.30;106008;1282;61134;-83
2023/01/26 07:13:41;;;;;;;;;;;;;;;18.13;33.80;101729.84;106255;1282;61585;-84
2023/01/26 07:16:11;;;;;;;;;;;;;;;18.29;33.67;101729.33;106205;1282;59327;-83
2023/01/26 07:18:37;;;;;;;;;;;;;;;18.43;33.68;101725.64;106260;1287;75396;-82
2023/01/26 07:21:03;;;;;;;;;;;;;;;18.57;33.64;101721.98;106221;1282;61243;-83
2023/01/26 07:23:28;;;;;;;;;;;;;;;18.70;33.65;101713.36;106239;1282;61275;-83
2023/01/26 07:25:54;;;;;;;;;;;;;;;18.82;33.56;101709.59;106280;1282;61298;-82
2023/01/26 07:28:19;;;;;;;;;;;;;;;18.93;33.57;101708.40;106201;1285;61144;-82
2023/01/26 07:30:45;;;;;;;;;;;;;;;19.04;33.61;101708.06;106157;1282;59385;-83
2023/01/26 07:33:10;;;;;;;;;;;;;;;19.12;33.66;101700.52;106119;1285;61259;-83
2023/01/26 07:35:36;;;;;;;;;;;;;;;19.21;33.79;101702.76;106247;1282;62261;-83
2023/01/26 07:38:04;;;;;;;;;;;;;;;19.29;33.82;101694.67;106292;1282;61302;-83
2023/01/26 07:40:30;;;;;;;;;;;;;;;19.37;33.68;101692.52;106155;1285;61160;-83
2023/01/26 07:42:59;;;;;;;;;;;;;;;19.43;33.70;101682.73;106344;1282;59354;-83
2023/01/26 07:45:25;;;;;;;;;;;;;;;19.50;33.83;101682.77;106329;1282;61275;-84
2023/01/26 07:47:53;;;;;;;;;;;;;;;19.56;33.65;101681.91;106256;1282;61308;-83
2023/01/26 07:50:20;;;;;;;;;;;;;;;19.61;33.85;101684.13;106319;1282;74447;-84
2023/01/26 07:52:46;;;;;;;;;;;;;;;19.68;33.86;101684.20;106202;1282;61010;-84
2023/01/26 07:55:14;;;;;;;;;;;;;;;19.66;33.68;101687.48;106274;1283;61906;-84
2023/01/26 07:57:41;;;;;;;;;;;;;;;19.53;33.55;101684.92;106368;1282;72523;-84
2023/01/26 08:00:07;;;;;;;;;;;;;;;19.40;33.49;101680.39;106514;1282;73851;-84
2023/01/26 08:02:34;;;;;;;;;;;;;;;19.35;33.69;101674.80;106233;1282;60065;-84
2023/01/26 08:05:01;;;;;;;;;;;;;;;19.32;33.55;101670.98;106219;1287;61243;-85
2023/01/26 08:07:27;;;;;;;;;;;;;;;19.20;33.54;101671.92;106327;1285;72476;-84
2023/01/26 08:09:53;;;;;;;;;;;;;;;19.16;33.69;101672.86;106151;1282;61275;-85
2023/01/26 08:12:19;;;;;;;;;;;;;;;19.14;33.63;101672.77;106161;1282;61072;-83
2023/01/26 08:14:45;;;;;;;;;;;;;;;19.12;33.61;101667.88;106123;1282;59761;-84
2023/01/26 08:17:11;;;;;;;;;;;;;;;19.14;33.84;101670.63;106145;1285;61333;-84
2023/01/26 08:19:36;;;;;;;;;;;;;;;19.19;33.80;101668.77;106263;1282;61202;-84
2023/01/26 08:22:02;;;;;;;;;;;;;;;19.25;34.00;101664.70;106262;1283;60239;-84
2023/01/26 08:24:29;;;;;;;;;;;;;;;19.34;34.16;101662.86;106266;1282;59694;-84
2023/01/26 08:26:55;;;;;;;;;;;;;;;19.41;34.05;101658.23;106222;1282;61471;-83
2023/01/26 08:29:21;;;;;;;;;;;;;;;19.48;34.15;101655.90;106069;1287;61158;-84
2023/01/26 08:31:47;;;;;;;;;;;;;;;19.54;34.09;101656.13;106107;1282;61251;-84
2023/01/26 08:34:12;;;;;;;;;;;;;;;19.59;34.20;101659.95;106165;1282;61317;-83
2023/01/26 08:36:38;;;;;;;;;;;;;;;19.65;34.16;101659.52;106106;1283;61413;-84
2023/01/26 08:39:03;;;;;;;;;;;;;;;19.69;34.21;101656.25;106150;1285;61283;-84
2023/01/26 08:41:30;;;;;;;;;;;;;;;19.73;34.13;101654.26;106059;1282;72598;-84
2023/01/26 08:43:58;;;;;;;;;;;;;;;19.77;34.22;101655.83;106088;1282;74747;-84
2023/01/26 08:46:24;;;;;;;;;;;;;;;19.81;34.13;101656.91;106198;1282;61061;-84
2023/01/26 08:48:50;;;;;;;;;;;;;;;19.84;34.20;101650.51;106274;1282;60210;-83
2023/01/26 08:51:16;;;;;;;;;;;;;;;19.87;34.20;101648.21;106206;1282;61169;-84
2023/01/26 08:53:42;;;;;;;;;;;;;;;19.90;34.22;101648.24;106162;1282;61355;-84
2023/01/26 08:56:09;;;;;;;;;;;;;;;19.92;34.12;101653.45;106220;1282;61284;-84
2023/01/26 08:58:35;;;;;;;;;;;;;;;19.96;34.14;101648.13;106072;1284;61210;-85
2023/01/26 09:01:07;;;;;;;;;;;;;;;19.94;34.21;101647.11;105993;1282;61148;-85
2023/01/26 09:03:34;;;;;;;;;;;;;;;19.88;33.94;101648.55;106577;1285;74473;-86
2023/01/26 09:06:00;;;;;;;;;;;;;;;19.63;33.54;101639.97;106171;1282;59919;-85
2023/01/26 09:08:25;;;;;;;;;;;;;;;19.15;33.67;101642.58;106204;1283;61298;-85
2023/01/26 09:10:52;;;;;;;;;;;;;;;18.57;33.30;101643.34;105971;1282;59429;-85
2023/01/26 09:13:17;;;;;;;;;;;;;;;18.36;33.93;101633.29;106133;1285;60007;-84
2023/01/26 09:15:44;;;;;;;;;;;;;;;18.41;34.00;101618.99;106142;1282;59909;-84
2023/01/26 09:18:10;;;;;;;;;;;;;;;18.51;34.04;101607.64;106111;1282;61243;-85
2023/01/26 09:20:36;;;;;;;;;;;;;;;18.63;34.08;101605.45;106104;1285;61315;-84
2023/01/26 09:23:02;;;;;;;;;;;;;;;18.76;34.08;101595.39;106083;1283;61290;-84
2023/01/26 09:25:27;;;;;;;;;;;;;;;18.88;34.18;101593.02;106290;1282;61291;-81
2023/01/26 09:27:53;;;;;;;;;;;;;;;19.01;34.09;101591.38;106189;1283;59478;-83
2023/01/26 09:30:18;;;;;;;;;;;;;;;19.10;34.18;101583.04;106084;1285;61269;-83
2023/01/26 09:32:44;;;;;;;;;;;;;;;19.19;34.15;101577.40;106123;1282;59440;-83
2023/01/26 09:35:10;;;;;;;;;;;;;;;19.29;34.24;101575.48;106253;1282;61264;-83
2023/01/26 09:37:39;;;;;;;;;;;;;;;19.35;34.09;101569.83;106740;1285;59330;-83
2023/01/26 09:40:05;;;;;;;;;;;;;;;19.40;34.17;101569.20;106137;1287;61265;-84
2023/01/26 09:42:30;;;;;;;;;;;;;;;19.46;34.07;101567.27;106240;1284;61398;-84
2023/01/26 09:44:57;;;;;;;;;;;;;;;19.52;34.06;101568.74;106258;1282;59762;-84
2023/01/26 09:47:30;;;;;;;;;;;;;;;19.56;34.06;101560.70;106189;1285;59449;-82
2023/01/26 09:49:58;;;;;;;;;;;;;;;19.59;34.19;101560.54;106025;1282;61270;-83
2023/01/26 09:52:31;;;;;;;;;;;;;;;19.61;34.16;101554.34;106099;1284;72415;-83
2023/01/26 09:54:57;;;;;;;;;;;;;;;19.63;34.27;101555.48;106206;1284;74420;-84
2023/01/26 09:57:32;;;;;;;;;;;;;;;19.65;34.31;101550.37;106257;1282;61241;-84
2023/01/26 10:00:08;;;;;;;;;;;;;;;19.67;34.51;101545.27;106173;1282;60180;-85
2023/01/26 10:02:34;;;;;;;;;;;;;;;19.69;34.53;101534.83;106153;1282;72616;-84
2023/01/26 10:05:01;;;;;;;;;;;;;;;19.65;34.31;101529.13;106218;1282;61252;-83
2023/01/26 10:07:26;;;;;;;;;;;;;;;19.18;33.74;101530.50;106199;1282;59990;-83
2023/01/26 10:09:52;;;;;;;;;;;;;;;18.82;34.13;101531.61;106186;1282;61750;-83
2023/01/26 10:12:28;;;;;;;;;;;;;;;18.72;34.39;101527.63;106137;1284;61310;-85
2023/01/26 10:14:59;;;;;;;;;;;;;;;18.67;34.23;101533.22;106236;1282;74451;-83
2023/01/26 10:17:32;;;;;;;;;;;;;;;18.65;34.33;101530.65;106256;1283;61270;-85
2023/01/26 10:20:07;;;;;;;;;;;;;;;18.68;34.56;101531.41;106167;1282;60207;-84
2023/01/26 10:22:43;;;;;;;;;;;;;;;18.74;34.49;101524.88;106350;1282;71296;-84
2023/01/26 10:25:15;;;;;;;;;;;;;;;18.79;34.41;101515.36;106368;1282;75833;-83
2023/01/26 10:27:42;;;;;;;;;;;;;;;18.78;34.53;101514.87;106308;1283;61103;-83
2023/01/26 10:30:13;;;;;;;;;;;;;;;18.75;34.46;101514.48;106213;1282;60485;-82
2023/01/26 10:32:39;;;;;;;;;;;;;;;18.76;34.45;101510.16;106293;1283;72426;-84
2023/01/26 10:35:05;;;;;;;;;;;;;;;18.79;34.50;101510.55;106253;1283;61272;-83
2023/01/26 10:37:30;;;;;;;;;;;;;;;18.82;34.43;101507.16;106149;1282;61375;-83
2023/01/26 10:39:58;;;;;;;;;;;;;;;18.85;34.40;101497.73;106255;1282;61397;-83
2023/01/26 10:42:26;;;;;;;;;;;;;;;18.82;34.45;101499.14;106263;1287;61232;-84
2023/01/26 10:44:51;;;;;;;;;;;;;;;18.82;34.44;101494.52;106148;1284;75416;-84
2023/01/26 10:47:18;;;;;;;;;;;;;;;18.80;34.47;101491.78;106284;1285;59464;-84
2023/01/26 10:49:44;;;;;;;;;;;;;;;18.73;34.40;101482.46;106436;1287;60110;-84
2023/01/26 10:52:20;;;;;;;;;;;;;;;18.74;34.56;101476.55;106128;1287;59458;-83
2023/01/26 10:54:46;;;;;;;;;;;;;;;18.78;34.70;101467.61;106210;1282;74449;-83
2023/01/26 10:57:26;;;;;;;;;;;;;;;18.81;34.54;101462.09;106216;1283;61274;-83
2023/01/26 10:59:54;;;;;;;;;;;;;;;18.84;34.56;101454.81;106203;1283;60124;-84
2023/01/26 11:02:20;;;;;;;;;;;;;;;18.84;34.39;101449.67;106274;1282;73052;-82
2023/01/26 11:05:05;;;;;;;;;;;;;;;18.70;34.32;101445.02;106169;1282;75303;-83
2023/01/26 11:07:34;;;;;;;;;;;;;;;18.47;34.17;101448.10;106214;1282;61135;-83
2023/01/26 11:10:32;;;;;;;;;;;;;;;18.18;34.37;101443.28;106210;1284;61063;-84
2023/01/26 11:13:18;;;;;;;;;;;;;;;17.99;34.43;101439.77;105743;1288;72609;-84
2023/01/26 11:15:48;;;;;;;;;;;;;;;17.97;34.40;101437.40;105866;1289;74294;-83
2023/01/26 11:18:21;;;;;;;;;;;;;;;18.04;34.78;101433.82;105670;1292;60653;-83
2023/01/26 11:20:50;;;;;;;;;;;;;;;18.15;34.74;101433.98;105539;1290;60324;-83
2023/01/26 11:23:16;;;;;;;;;;;;;;;18.28;34.77;101436.22;105688;1291;71539;-83
2023/01/26 11:25:58;;;;;;;;;;;;;;;18.39;34.74;101432.12;105590;1289;59738;-83
2023/01/26 11:28:28;;;;;;;;;;;;;;;18.50;34.78;101427.48;105662;1288;61337;-83
2023/01/26 11:30:57;;;;;;;;;;;;;;;18.62;34.77;101422.97;105641;1290;60690;-83
2023/01/26 11:33:34;;;;;;;;;;;;;;;18.68;34.69;101417.48;105494;1288;73529;-84
2023/01/26 11:36:19;;;;;;;;;;;;;;;18.69;34.83;101412.05;105621;1292;75001;-84
2023/01/26 11:39:04;;;;;;;;;;;;;;;18.70;34.86;101408.13;105628;1289;61214;-82
2023/01/26 11:41:48;;;;;;;;;;;;;;;18.67;34.78;101397.38;105588;1290;61034;-84
2023/01/26 11:44:29;;;;;;;;;;;;;;;18.67;34.84;101395.25;105539;1290;72551;-85
2023/01/26 11:47:04;;;;;;;;;;;;;;;18.66;34.95;101390.10;105651;1289;75450;-83
2023/01/26 11:49:35;;;;;;;;;;;;;;;18.66;34.78;101386.35;106088;1283;61121;-82
2023/01/26 11:52:20;;;;;;;;;;;;;;;18.67;34.86;101384.91;106283;1285;61141;-84
2023/01/26 11:55:03;;;;;;;;;;;;;;;18.70;34.77;101380.84;106278;1283;72387;-83
2023/01/26 11:57:48;;;;;;;;;;;;;;;18.72;34.80;101371.06;106289;1286;74608;-84
2023/01/26 12:00:25;;;;;;;;;;;;;;;18.67;34.59;101367.63;106270;1283;61036;-84
2023/01/26 12:02:56;;;;;;;;;;;;;;;18.44;34.68;101365.40;106256;1283;61084;-83
2023/01/26 12:05:40;;;;;;;;;;;;;;;18.25;34.81;101364.21;106260;1286;73287;-84
2023/01/26 12:08:22;;;;;;;;;;;;;;;18.04;34.81;101363.65;106248;1283;75811;-83
2023/01/26 12:11:22;;;;;;;;;;;;;;;17.83;34.82;101360.71;106008;1284;61268;-83
2023/01/26 12:14:00;;;;;;;;;;;;;;;17.77;35.13;101354.41;106311;1283;60089;-83
2023/01/26 12:16:46;;;;;;;;;;;;;;;17.85;35.09;101352.95;106138;1282;73641;-84
2023/01/26 12:19:15;;;;;;;;;;;;;;;17.97;34.98;101351.35;106290;1285;74538;-84
2023/01/26 12:21:42;;;;;;;;;;;;;;;18.05;34.99;101340.27;106324;1283;61038;-84
2023/01/26 12:24:09;;;;;;;;;;;;;;;18.15;34.81;101338.34;106147;1287;61262;-84
2023/01/26 12:26:36;;;;;;;;;;;;;;;18.24;34.86;101335.21;106041;1285;73236;-83
2023/01/26 12:29:21;;;;;;;;;;;;;;;18.33;34.96;101331.73;106295;1283;74861;-84
2023/01/26 12:31:59;;;;;;;;;;;;;;;18.42;34.90;101332.68;106164;1287;60019;-83
2023/01/26 12:34:48;;;;;;;;;;;;;;;18.47;34.74;101327.65;106259;1282;61699;-83
2023/01/26 12:37:26;;;;;;;;;;;;;;;18.46;34.64;101318.80;105882;1291;72440;-83
2023/01/26 12:40:10;;;;;;;;;;;;;;;18.47;34.62;101313.00;105879;1287;74461;-82
2023/01/26 12:42:58;;;;;;;;;;;;;;;18.52;34.62;101309.36;105830;1292;59890;-84
2023/01/26 12:45:29;;;;;;;;;;;;;;;18.56;34.58;101305.21;105869;1289;61612;-84
2023/01/26 12:47:55;;;;;;;;;;;;;;;18.57;34.48;101300.55;105767;1288;73015;-84
2023/01/26 12:50:37;;;;;;;;;;;;;;;18.58;34.62;101299.58;105796;1291;59458;-84
2023/01/26 12:53:07;;;;;;;;;;;;;;;18.58;34.47;101291.94;105799;1286;62355;-84
2023/01/26 12:55:50;;;;;;;;;;;;;;;18.55;34.51;101288.70;105991;1291;61182;-83
2023/01/26 12:58:19;;;;;;;;;;;;;;;18.54;34.60;101290.20;106249;1286;72351;-85
2023/01/26 13:01:13;;;;;;;;;;;;;;;18.52;34.44;101292.06;105951;1290;74393;-84
2023/01/26 13:03:43;;;;;;;;;;;;;;;18.43;34.61;101287.20;105345;1294;60200;-84
2023/01/26 13:06:08;;;;;;;;;;;;;;;18.26;34.53;101285.09;105222;1296;61667;-83
2023/01/26 13:08:34;;;;;;;;;;;;;;;18.17;34.60;101288.19;105274;1293;61124;-83
2023/01/26 13:11:09;;;;;;;;;;;;;;;18.16;34.68;101281.98;105191;1295;61234;-84
2023/01/26 13:13:55;;;;;;;;;;;;;;;18.11;34.52;101277.44;105363;1297;61199;-83
2023/01/26 13:16:27;;;;;;;;;;;;;;;18.03;34.72;101277.14;105693;1288;61148;-83
2023/01/26 13:18:53;;;;;;;;;;;;;;;17.99;34.59;101272.88;105728;1293;73450;-83